Time;durP1;ratioP1;P1;durP2;ratioP2;P2;SDS_P1;SDS_P2;PMS_P1;PMS_P2;Temp;Humidity;BMP_temperature;BMP_pressure;BME280_temperature;BME280_humidity;BME280_pressure;Samples;Min_cycle;Max_cycle;Signal;HPM_P1;HPM_P2
2022/07/10 00:02:13;;;;;;;7.72;2.50;;;;;;;12.17;92.46;102594.53;5241347;28;20112;-69
2022/07/10 00:04:44;;;;;;;8.00;2.45;;;;;;;12.12;92.71;102604.66;5245770;28;20029;-69
2022/07/10 00:07:15;;;;;;;6.95;2.20;;;;;;;12.11;92.54;102598.41;5247862;28;20463;-70
2022/07/10 00:09:46;;;;;;;7.03;1.90;;;;;;;12.14;92.35;102600.06;5246227;28;20398;-70
2022/07/10 00:12:18;;;;;;;7.10;2.00;;;;;;;12.07;93.33;102607.56;5245685;28;20558;-70
2022/07/10 00:14:49;;;;;;;6.55;2.10;;;;;;;12.10;94.12;102601.16;5243000;28;20551;-69
2022/07/10 00:17:20;;;;;;;6.95;2.13;;;;;;;12.11;94.05;102606.44;5246262;28;20029;-70
2022/07/10 00:19:51;;;;;;;5.72;2.10;;;;;;;11.98;93.87;102602.69;5252247;28;20885;-70
2022/07/10 00:22:23;;;;;;;3.53;1.70;;;;;;;12.02;93.69;102601.59;5244051;28;20029;-69
2022/07/10 00:24:54;;;;;;;6.97;1.75;;;;;;;11.93;94.21;102594.09;5246435;28;20022;-69
2022/07/10 00:27:25;;;;;;;6.85;2.45;;;;;;;11.93;94.78;102599.44;5239893;28;20442;-69
2022/07/10 00:29:57;;;;;;;5.13;1.80;;;;;;;12.02;96.33;102603.41;5240731;28;20658;-69
2022/07/10 00:32:28;;;;;;;6.93;1.88;;;;;;;11.89;94.85;102597.81;5242272;28;20102;-69
2022/07/10 00:35:01;;;;;;;5.45;1.92;;;;;;;11.82;94.57;102599.13;5240631;28;20075;-69
2022/07/10 00:37:33;;;;;;;6.43;2.35;;;;;;;11.78;94.72;102601.09;5240290;28;20036;-69
2022/07/10 00:40:05;;;;;;;5.32;2.08;;;;;;;11.75;94.97;102593.22;5239139;28;20025;-69
2022/07/10 00:42:36;;;;;;;9.93;2.55;;;;;;;11.72;95.05;102596.06;5233116;28;20163;-69
2022/07/10 00:45:08;;;;;;;5.15;1.80;;;;;;;11.69;95.67;102590.88;5232148;28;20535;-70
2022/07/10 00:47:40;;;;;;;7.80;1.83;;;;;;;11.66;95.69;102589.25;5232828;28;20510;-69
2022/07/10 00:50:12;;;;;;;7.55;2.28;;;;;;;11.69;95.94;102582.84;5238094;28;20028;-69
2022/07/10 00:52:43;;;;;;;6.82;1.80;;;;;;;11.62;96.25;102579.66;5238007;28;20463;-69
2022/07/10 00:55:15;;;;;;;5.00;1.80;;;;;;;11.64;96.61;102576.88;5233022;28;20597;-69
2022/07/10 00:57:47;;;;;;;7.22;2.65;;;;;;;11.62;96.67;102576.09;5238056;28;20068;-69
2022/07/10 01:00:19;;;;;;;9.23;2.30;;;;;;;11.62;97.15;102576.97;5233872;28;20025;-69
2022/07/10 01:02:50;;;;;;;6.55;2.22;;;;;;;11.71;97.44;102576.47;5242315;28;20051;-69
2022/07/10 01:05:22;;;;;;;7.03;1.90;;;;;;;11.80;97.79;102567.09;5243853;28;20773;-69
2022/07/10 01:07:53;;;;;;;5.78;2.33;;;;;;;11.82;98.36;102570.56;5239791;28;20033;-69
2022/07/10 01:10:24;;;;;;;7.28;2.55;;;;;;;11.81;97.33;102568.81;5242399;28;20025;-70
2022/07/10 01:12:56;;;;;;;9.45;2.22;;;;;;;11.84;96.99;102570.47;5242442;28;20033;-69
2022/07/10 01:15:27;;;;;;;4.70;1.70;;;;;;;11.87;97.14;102555.13;5245069;28;20034;-69
2022/07/10 01:17:59;;;;;;;6.95;2.10;;;;;;;11.86;97.30;102558.72;5243644;28;20550;-70
2022/07/10 01:20:32;;;;;;;6.82;2.20;;;;;;;11.83;97.33;102561.59;5243064;28;20456;-69
2022/07/10 01:23:03;;;;;;;4.90;2.15;;;;;;;11.83;97.59;102552.69;5238883;28;20125;-69
2022/07/10 01:25:34;;;;;;;5.60;2.30;;;;;;;11.74;97.84;102546.91;5241902;28;21398;-69
2022/07/10 01:28:05;;;;;;;7.63;2.70;;;;;;;11.70;98.26;102548.00;5243513;28;20041;-69
2022/07/10 01:30:37;;;;;;;7.50;2.65;;;;;;;11.66;97.57;102540.22;5235136;28;20033;-69
2022/07/10 01:33:08;;;;;;;8.50;2.30;;;;;;;11.62;98.07;102539.56;5246864;28;20093;-70
2022/07/10 01:35:40;;;;;;;6.32;2.30;;;;;;;11.60;98.59;102549.44;5257478;28;20024;-69
2022/07/10 01:38:11;;;;;;;7.07;2.70;;;;;;;11.59;98.73;102542.38;5238567;28;20406;-69
2022/07/10 01:40:43;;;;;;;8.20;2.67;;;;;;;11.58;99.72;102535.28;5234315;28;20039;-69
2022/07/10 01:43:14;;;;;;;8.93;2.33;;;;;;;11.53;98.69;102540.91;5237107;28;20029;-69
2022/07/10 01:45:45;;;;;;;7.68;2.42;;;;;;;11.54;99.21;102539.06;5231987;28;20444;-69
2022/07/10 01:48:17;;;;;;;10.35;2.97;;;;;;;11.49;98.98;102544.69;5237557;28;20090;-69
2022/07/10 01:50:48;;;;;;;8.45;2.90;;;;;;;11.53;99.58;102543.56;5233949;28;20037;-69
2022/07/10 01:53:19;;;;;;;5.25;2.20;;;;;;;11.45;99.32;102544.91;5235576;28;20033;-69
2022/07/10 01:55:51;;;;;;;9.43;2.30;;;;;;;11.50;100.00;102542.88;5230805;28;20214;-69
2022/07/10 01:58:22;;;;;;;6.28;2.30;;;;;;;11.41;100.00;102540.66;5240564;28;20052;-69
2022/07/10 02:00:53;;;;;;;7.78;2.70;;;;;;;11.42;100.00;102540.59;5235917;28;20543;-69
2022/07/10 02:06:15;;;;;;;8.27;2.78;;;;;;;11.37;100.00;102545.31;5241279;28;20025;-69
2022/07/10 02:08:46;;;;;;;7.55;2.80;;;;;;;11.35;100.00;102531.16;5234378;28;20388;-69
2022/07/10 02:11:18;;;;;;;9.25;2.53;;;;;;;11.33;100.00;102546.41;5233111;28;20036;-69
2022/07/10 02:13:50;;;;;;;6.10;2.60;;;;;;;11.26;100.00;102543.22;5230038;28;20047;-69
2022/07/10 02:16:21;;;;;;;9.20;2.72;;;;;;;11.32;100.00;102544.72;5236771;28;20037;-69
2022/07/10 02:18:52;;;;;;;7.20;2.55;;;;;;;11.28;100.00;102540.47;5235056;28;20082;-69
2022/07/10 02:21:24;;;;;;;7.85;2.95;;;;;;;11.24;100.00;102539.78;5247772;28;20029;-70
2022/07/10 02:23:55;;;;;;;7.70;2.60;;;;;;;11.24;100.00;102534.41;5237163;28;20095;-69
2022/07/10 02:26:26;;;;;;;6.60;2.72;;;;;;;11.22;100.00;102532.75;5230892;28;20647;-69
2022/07/10 02:28:57;;;;;;;10.43;2.92;;;;;;;11.18;100.00;102538.28;5243341;28;20112;-69
2022/07/10 02:31:29;;;;;;;6.53;2.50;;;;;;;11.21;100.00;102539.91;5238256;28;20037;-69
2022/07/10 02:34:01;;;;;;;6.40;2.80;;;;;;;11.19;100.00;102531.13;5244956;28;20040;-70
2022/07/10 02:36:36;;;;;;;7.25;2.88;;;;;;;11.24;100.00;102530.88;5239985;28;20039;-69
2022/07/10 02:39:08;;;;;;;5.47;2.50;;;;;;;11.15;100.00;102529.56;5244253;28;20028;-69
2022/07/10 02:41:40;;;;;;;8.95;2.50;;;;;;;11.13;100.00;102532.28;5237764;28;20494;-70
2022/07/10 02:44:12;;;;;;;6.30;2.67;;;;;;;11.17;100.00;102531.19;5244840;28;20087;-69
2022/07/10 02:46:43;;;;;;;6.40;3.13;;;;;;;11.08;100.00;102528.13;5239670;28;20471;-69
2022/07/10 02:49:14;;;;;;;6.97;2.60;;;;;;;11.06;100.00;102532.69;5256240;28;20394;-69
2022/07/10 02:51:45;;;;;;;7.53;2.80;;;;;;;11.04;100.00;102529.25;5239282;28;20528;-69
2022/07/10 02:54:17;;;;;;;14.18;3.40;;;;;;;11.10;100.00;102532.47;5239007;28;20192;-70
2022/07/10 02:56:48;;;;;;;8.40;3.28;;;;;;;11.03;100.00;102527.53;5229890;28;20665;-69
2022/07/10 02:59:19;;;;;;;10.57;3.40;;;;;;;11.07;100.00;102529.94;5239612;28;20049;-69
2022/07/10 03:01:50;;;;;;;7.90;3.03;;;;;;;11.10;100.00;102534.25;5239604;28;20129;-69
2022/07/10 03:04:22;;;;;;;8.55;3.35;;;;;;;11.14;100.00;102528.69;5244866;28;20475;-69
2022/07/10 03:06:53;;;;;;;9.82;2.90;;;;;;;11.17;100.00;102531.19;5243592;28;20532;-69
2022/07/10 03:09:25;;;;;;;6.80;3.83;;;;;;;11.16;100.00;102524.13;5238209;28;20483;-69
2022/07/10 03:11:56;;;;;;;9.48;2.70;;;;;;;11.15;100.00;102525.06;5241019;28;20049;-69
2022/07/10 03:14:27;;;;;;;7.35;3.17;;;;;;;11.14;100.00;102522.47;5237849;28;20032;-69
2022/07/10 03:16:59;;;;;;;7.97;3.55;;;;;;;11.10;100.00;102519.13;5235172;28;20031;-69
2022/07/10 03:19:30;;;;;;;8.90;3.03;;;;;;;11.08;100.00;102520.97;5235635;28;20582;-69
2022/07/10 03:22:01;;;;;;;6.22;3.20;;;;;;;11.10;100.00;102529.81;5239707;28;20032;-69
2022/07/10 03:24:33;;;;;;;8.93;3.17;;;;;;;11.05;100.00;102526.50;5235531;28;20025;-69
2022/07/10 03:27:05;;;;;;;7.57;3.30;;;;;;;11.03;100.00;102522.19;5238919;28;20729;-69
2022/07/10 03:29:36;;;;;;;7.10;3.13;;;;;;;10.99;100.00;102526.81;5243497;28;20032;-69
2022/07/10 03:32:08;;;;;;;9.13;2.95;;;;;;;10.98;100.00;102517.91;5236259;28;20030;-69
2022/07/10 03:34:39;;;;;;;6.68;3.33;;;;;;;10.99;100.00;102510.78;5239137;28;20072;-69
2022/07/10 03:37:11;;;;;;;7.18;3.40;;;;;;;10.95;100.00;102509.22;5244309;28;20495;-69
2022/07/10 03:39:42;;;;;;;5.95;3.00;;;;;;;10.90;100.00;102506.78;5240200;28;20033;-69
2022/07/10 03:42:13;;;;;;;8.98;3.38;;;;;;;10.96;100.00;102516.28;5243613;28;20399;-69
2022/07/10 03:44:45;;;;;;;9.00;3.10;;;;;;;10.92;100.00;102504.03;5232671;28;20039;-70
2022/07/10 03:47:19;;;;;;;8.77;3.78;;;;;;;11.03;100.00;102506.16;5241735;28;20037;-69
2022/07/10 03:49:50;;;;;;;6.22;3.15;;;;;;;10.98;100.00;102499.22;5234341;28;20037;-69
2022/07/10 03:52:21;;;;;;;8.23;3.00;;;;;;;10.99;100.00;102503.63;5238421;28;20434;-69
2022/07/10 03:54:56;;;;;;;6.85;3.10;;;;;;;10.99;100.00;102510.78;5238918;28;20309;-69
2022/07/10 04:00:17;;;;;;;6.30;3.33;;;;;;;10.99;100.00;102502.78;5233972;28;20037;-69
2022/07/10 04:02:54;;;;;;;8.80;3.75;;;;;;;11.02;100.00;102507.94;5236446;28;20025;-69
2022/07/10 04:05:27;;;;;;;7.32;3.47;;;;;;;11.10;100.00;102508.44;5248221;28;20027;-69
2022/07/10 04:07:59;;;;;;;8.50;3.03;;;;;;;11.13;100.00;102512.75;5249944;28;20029;-69
2022/07/10 04:10:37;;;;;;;7.13;3.30;;;;;;;11.18;100.00;102510.69;5255976;28;20029;-69
2022/07/10 04:13:08;;;;;;;6.60;2.85;;;;;;;11.24;100.00;102505.03;5237803;28;20041;-69
2022/07/10 04:15:39;;;;;;;8.23;3.70;;;;;;;11.32;100.00;102512.66;5231892;28;20032;-70
2022/07/10 04:18:10;;;;;;;5.97;3.08;;;;;;;11.36;100.00;102512.38;5243374;28;20044;-69
2022/07/10 04:20:42;;;;;;;7.93;3.40;;;;;;;11.46;100.00;102517.25;5234278;28;20211;-69
2022/07/10 04:23:13;;;;;;;10.82;3.40;;;;;;;11.52;100.00;102520.44;5238831;28;20060;-69
2022/07/10 04:25:44;;;;;;;11.88;3.45;;;;;;;11.57;100.00;102515.72;5235811;28;20074;-69
2022/07/10 04:28:16;;;;;;;8.73;3.33;;;;;;;11.63;100.00;102508.31;5241994;28;20034;-69
2022/07/10 04:30:47;;;;;;;7.63;3.38;;;;;;;11.69;100.00;102500.81;5242539;28;20501;-69
2022/07/10 04:33:18;;;;;;;8.05;3.33;;;;;;;11.75;100.00;102499.63;5244670;28;20067;-70
2022/07/10 04:35:49;;;;;;;8.52;3.80;;;;;;;11.81;100.00;102509.97;5240672;28;20033;-69
2022/07/10 04:38:21;;;;;;;6.97;3.10;;;;;;;11.82;100.00;102513.53;5243356;28;20021;-69
2022/07/10 04:40:52;;;;;;;8.18;3.30;;;;;;;11.86;100.00;102513.25;5241588;28;20036;-69
2022/07/10 04:43:23;;;;;;;9.77;3.47;;;;;;;11.93;100.00;102513.84;5244485;28;20039;-70
2022/07/10 04:45:54;;;;;;;7.28;3.10;;;;;;;12.02;100.00;102507.09;5239558;28;20060;-69
2022/07/10 04:48:26;;;;;;;4.88;3.15;;;;;;;12.07;100.00;102494.34;5239016;28;20036;-69
2022/07/10 04:50:58;;;;;;;9.55;3.35;;;;;;;12.18;100.00;102499.94;5242374;28;20025;-69
2022/07/10 04:53:29;;;;;;;7.55;3.10;;;;;;;12.19;100.00;102503.47;5242121;28;20025;-69
2022/07/10 04:56:02;;;;;;;8.13;2.70;;;;;;;12.30;100.00;102523.31;5240537;28;20497;-70
2022/07/10 04:58:33;;;;;;;9.80;3.60;;;;;;;12.32;100.00;102518.75;5237615;28;20041;-70
2022/07/10 05:01:04;;;;;;;8.48;3.22;;;;;;;12.42;100.00;102504.84;5232618;28;20021;-69
2022/07/10 05:03:36;;;;;;;8.07;3.13;;;;;;;12.47;100.00;102508.97;5235294;28;20040;-70
2022/07/10 05:06:07;;;;;;;6.68;3.33;;;;;;;12.52;100.00;102503.34;5239189;28;20044;-70
2022/07/10 05:08:39;;;;;;;6.97;3.05;;;;;;;12.68;100.00;102506.00;5241007;28;20061;-70
2022/07/10 05:11:10;;;;;;;8.60;2.92;;;;;;;12.69;100.00;102505.88;5237406;28;20057;-70
2022/07/10 05:13:46;;;;;;;5.80;3.03;;;;;;;12.80;100.00;102509.78;5233662;28;20031;-70
2022/07/10 05:16:18;;;;;;;9.68;4.10;;;;;;;12.84;100.00;102511.31;5230769;28;20033;-69
2022/07/10 05:18:49;;;;;;;8.15;3.15;;;;;;;12.94;100.00;102509.78;5235139;28;20032;-69
2022/07/10 05:21:20;;;;;;;8.35;3.22;;;;;;;13.10;100.00;102515.97;5236094;28;20021;-69
2022/07/10 05:23:52;;;;;;;9.00;3.70;;;;;;;13.20;100.00;102518.09;5238045;28;20371;-69
2022/07/10 05:26:23;;;;;;;6.85;2.83;;;;;;;13.13;99.73;102518.47;5241608;28;20029;-69
2022/07/10 05:28:54;;;;;;;6.75;3.13;;;;;;;13.03;99.80;102514.59;5243461;28;20020;-70
2022/07/10 05:31:26;;;;;;;7.88;2.92;;;;;;;13.00;100.00;102506.78;5238358;28;20033;-69
2022/07/10 05:33:57;;;;;;;7.50;2.60;;;;;;;12.91;100.00;102505.50;5239708;28;20029;-69
2022/07/10 05:36:28;;;;;;;7.55;2.47;;;;;;;12.90;100.00;102508.25;5234433;28;20669;-70
2022/07/10 05:38:59;;;;;;;8.20;2.80;;;;;;;12.90;100.00;102517.16;5239128;28;20487;-70
2022/07/10 05:41:32;;;;;;;9.90;2.60;;;;;;;12.95;100.00;102512.38;5236703;28;20028;-69
2022/07/10 05:44:04;;;;;;;7.05;2.58;;;;;;;13.00;100.00;102517.50;5236883;28;20375;-69
2022/07/10 05:46:35;;;;;;;11.20;2.40;;;;;;;13.03;100.00;102511.94;5233366;28;20029;-70
2022/07/10 05:49:06;;;;;;;10.07;2.30;;;;;;;13.09;100.00;102513.38;5240619;28;20017;-69
2022/07/10 05:51:38;;;;;;;8.43;2.45;;;;;;;13.16;100.00;102516.56;5238772;28;20503;-70
2022/07/10 05:54:09;;;;;;;5.50;2.15;;;;;;;13.23;100.00;102505.38;5244367;28;20400;-70
2022/07/10 05:56:40;;;;;;;8.15;2.17;;;;;;;13.30;100.00;102511.25;5237933;28;20041;-70
2022/07/10 05:59:12;;;;;;;8.38;2.95;;;;;;;13.42;100.00;102515.84;5240402;28;20137;-70
2022/07/10 06:01:43;;;;;;;7.97;2.55;;;;;;;13.49;100.00;102519.00;5236914;28;20048;-70
2022/07/10 06:04:14;;;;;;;9.15;2.22;;;;;;;13.56;100.00;102522.16;5241187;28;20033;-70
2022/07/10 06:06:46;;;;;;;6.75;1.90;;;;;;;13.64;99.85;102528.78;5239762;28;20123;-69
2022/07/10 06:09:17;;;;;;;7.07;2.28;;;;;;;13.75;99.61;102514.72;5244689;28;20171;-70
2022/07/10 06:11:49;;;;;;;5.30;1.70;;;;;;;13.89;98.00;102511.13;5241296;28;20032;-69
2022/07/10 06:14:20;;;;;;;7.60;2.03;;;;;;;13.95;98.34;102509.88;5242956;28;20052;-70
2022/07/10 06:16:51;;;;;;;7.63;2.05;;;;;;;14.05;96.50;102505.63;5245717;28;20903;-70
2022/07/10 06:19:23;;;;;;;6.63;1.85;;;;;;;14.16;96.24;102507.63;5237174;28;20108;-71
2022/07/10 06:24:44;;;;;;;6.47;1.92;;;;;;;14.49;93.81;102520.66;5241669;28;20037;-70
2022/07/10 06:27:15;;;;;;;9.38;2.47;;;;;;;14.63;91.78;102511.69;5240477;28;20380;-71
2022/07/10 06:29:46;;;;;;;8.23;1.80;;;;;;;14.80;92.01;102515.94;5239202;28;20025;-71
2022/07/10 06:32:18;;;;;;;6.03;1.75;;;;;;;15.01;89.52;102517.16;5242616;28;20583;-69
2022/07/10 06:34:49;;;;;;;4.50;1.33;;;;;;;15.22;89.66;102519.34;5242012;28;20052;-70
2022/07/10 06:37:21;;;;;;;7.88;1.63;;;;;;;15.38;87.12;102519.13;5239032;28;20332;-71
2022/07/10 06:39:52;;;;;;;6.00;1.58;;;;;;;15.49;85.49;102512.03;5239609;28;20035;-70
2022/07/10 06:42:24;;;;;;;5.50;1.42;;;;;;;15.61;85.61;102510.31;5241313;28;20041;-70
2022/07/10 06:44:55;;;;;;;6.68;1.38;;;;;;;15.69;84.39;102507.91;5240390;28;20028;-70
2022/07/10 06:50:16;;;;;;;8.25;1.55;;;;;;;15.71;83.87;102507.81;5242323;28;20033;-70
2022/07/10 06:52:49;;;;;;;7.90;1.85;;;;;;;15.75;83.54;102509.34;5240251;28;20396;-71
2022/07/10 06:55:21;;;;;;;7.60;1.95;;;;;;;15.78;83.97;102510.94;5240770;28;20032;-70
2022/07/10 06:57:52;;;;;;;6.53;1.23;;;;;;;15.79;84.08;102520.75;5239205;28;20058;-70
2022/07/10 07:00:24;;;;;;;6.78;1.27;;;;;;;15.87;83.98;102513.81;5238582;28;20214;-70
2022/07/10 07:02:55;;;;;;;11.65;1.88;;;;;;;15.91;83.74;102506.38;5239647;28;20515;-69
2022/07/10 07:05:26;;;;;;;7.88;1.50;;;;;;;16.12;84.11;102512.03;5240427;28;20655;-70
2022/07/10 07:07:58;;;;;;;7.03;1.67;;;;;;;16.39;82.24;102505.59;5240893;28;20535;-70
2022/07/10 07:10:29;;;;;;;5.47;1.73;;;;;;;16.61;81.99;102496.75;5243015;28;20032;-70
2022/07/10 07:13:02;;;;;;;8.02;1.48;;;;;;;16.83;80.27;102493.28;5245363;28;20025;-70
2022/07/10 07:15:38;;;;;;;5.87;1.50;;;;;;;17.23;79.62;102507.25;5237882;28;20136;-70
2022/07/10 07:18:12;;;;;;;7.43;1.80;;;;;;;17.13;76.55;102502.69;5248317;28;20032;-70
2022/07/10 07:23:33;;;;;;;8.93;1.67;;;;;;;17.56;75.59;102518.19;5243554;28;19921;-71
2022/07/10 07:26:04;;;;;;;5.55;1.40;;;;;;;17.79;75.68;102519.91;5243567;28;20033;-70
2022/07/10 07:28:35;;;;;;;7.35;1.70;;;;;;;17.71;75.07;102521.50;5240314;28;20057;-70
2022/07/10 07:31:07;;;;;;;9.75;1.98;;;;;;;17.75;74.71;102522.97;5241574;28;20032;-70
2022/07/10 07:33:38;;;;;;;6.93;2.05;;;;;;;17.78;75.33;102525.44;5244340;28;20025;-70
2022/07/10 07:36:09;;;;;;;6.93;1.60;;;;;;;17.92;76.08;102521.66;5242020;28;20024;-70
2022/07/10 07:38:41;;;;;;;5.22;1.80;;;;;;;17.73;74.79;102517.69;5237744;28;20032;-70
2022/07/10 07:41:12;;;;;;;8.80;1.85;;;;;;;17.83;75.57;102516.00;5239035;28;20033;-70
2022/07/10 07:43:43;;;;;;;7.75;1.85;;;;;;;17.70;74.83;102519.78;5238699;28;20033;-70
2022/07/10 07:46:15;;;;;;;6.75;2.15;;;;;;;17.63;75.03;102520.28;5250503;28;20025;-70
2022/07/10 07:48:46;;;;;;;7.35;2.13;;;;;;;17.65;75.16;102520.16;5249822;28;20052;-70
2022/07/10 07:51:17;;;;;;;7.22;2.38;;;;;;;17.73;74.16;102520.38;5253029;28;20115;-70
2022/07/10 07:53:49;;;;;;;7.78;2.28;;;;;;;17.92;74.55;102516.25;5244871;28;20033;-70
2022/07/10 07:56:20;;;;;;;7.57;2.42;;;;;;;18.10;73.59;102521.97;5249494;28;21254;-70
2022/07/10 07:58:51;;;;;;;6.75;1.90;;;;;;;18.18;72.76;102523.09;5251485;28;20045;-70
2022/07/10 08:01:22;;;;;;;8.00;2.20;;;;;;;18.23;73.03;102518.13;5244119;28;20029;-70
2022/07/10 08:03:55;;;;;;;5.40;2.35;;;;;;;18.09;72.68;102526.53;5246083;28;20407;-70
2022/07/10 08:06:26;;;;;;;7.43;2.25;;;;;;;17.99;73.08;102530.97;5245531;28;20029;-70
2022/07/10 08:08:58;;;;;;;8.57;2.50;;;;;;;17.73;73.32;102531.19;5251297;28;20029;-70
2022/07/10 08:11:29;;;;;;;8.70;2.88;;;;;;;17.70;73.85;102522.47;5243386;28;20036;-70
2022/07/10 08:14:00;;;;;;;7.72;2.72;;;;;;;17.74;74.40;102515.88;5244650;28;20186;-70
2022/07/10 08:16:31;;;;;;;7.43;2.70;;;;;;;17.91;75.16;102514.53;5248142;28;20033;-70
2022/07/10 08:19:03;;;;;;;9.10;2.78;;;;;;;18.03;74.18;102516.25;5245384;28;20030;-73
2022/07/10 08:21:34;;;;;;;7.60;2.90;;;;;;;18.01;72.44;102523.59;5244423;28;20140;-70
2022/07/10 08:24:06;;;;;;;6.45;2.58;;;;;;;18.00;72.49;102509.22;5248362;28;20036;-70
2022/07/10 08:26:37;;;;;;;8.75;3.00;;;;;;;18.10;71.92;102513.88;5252195;28;20060;-70
2022/07/10 08:29:09;;;;;;;9.43;3.10;;;;;;;18.28;71.75;102515.06;5249496;28;20033;-70
2022/07/10 08:31:40;;;;;;;7.80;2.72;;;;;;;18.38;71.09;102526.81;5251675;28;20375;-70
2022/07/10 08:34:12;;;;;;;8.30;2.10;;;;;;;18.65;71.77;102516.53;5241184;28;20112;-70
2022/07/10 08:36:43;;;;;;;7.80;2.30;;;;;;;18.51;71.21;102515.84;5239399;28;20065;-70
2022/07/10 08:39:16;;;;;;;10.68;2.65;;;;;;;18.35;71.24;102519.00;5238630;28;20066;-70
2022/07/10 08:41:50;;;;;;;6.95;2.58;;;;;;;18.29;72.48;102510.53;5248588;28;20486;-70
2022/07/10 08:44:22;;;;;;;4.05;1.48;;;;;;;18.23;72.00;102517.28;5244320;28;20033;-70
2022/07/10 08:46:53;;;;;;;8.60;2.30;;;;;;;18.03;71.94;102516.25;5255385;28;20037;-70
2022/07/10 08:49:28;;;;;;;8.10;2.70;;;;;;;18.06;72.93;102515.97;5250136;28;20036;-70
2022/07/10 08:52:16;;;;;;;8.10;2.30;;;;;;;18.08;74.01;102515.84;5257202;28;20033;-69
2022/07/10 08:54:47;;;;;;;7.70;2.53;;;;;;;18.07;73.16;102511.44;5242668;28;20092;-70
2022/07/10 08:57:19;;;;;;;8.82;2.15;;;;;;;18.09;72.82;102521.13;5252269;28;20029;-69
2022/07/10 08:59:51;;;;;;;9.55;2.22;;;;;;;18.17;73.50;102525.91;5251790;28;20036;-70
2022/07/10 09:02:22;;;;;;;5.97;2.10;;;;;;;18.26;73.17;102516.19;5245477;28;20029;-70
2022/07/10 09:04:53;;;;;;;7.38;1.92;;;;;;;18.07;72.61;102523.09;5247224;28;20033;-70
2022/07/10 09:07:33;;;;;;;7.53;2.13;;;;;;;18.13;72.76;102527.16;5261112;28;20083;-70
2022/07/10 09:10:07;;;;;;;6.60;1.95;;;;;;;18.39;73.09;102517.75;5247915;28;20034;-70
2022/07/10 09:13:04;;;;;;;9.80;2.38;;;;;;;18.61;73.12;102515.94;5247302;28;20108;-70
2022/07/10 09:15:35;;;;;;;6.75;2.10;;;;;;;18.36;72.04;102519.84;5245101;28;20501;-70
2022/07/10 09:18:07;;;;;;;7.03;2.53;;;;;;;18.39;72.57;102511.50;5240344;28;20116;-69
2022/07/10 09:20:40;;;;;;;4.15;2.00;;;;;;;18.32;72.19;102511.13;5247039;28;20036;-70
2022/07/10 09:23:18;;;;;;;4.38;2.20;;;;;;;18.39;71.73;102506.09;5243673;28;20387;-70
2022/07/10 09:25:52;;;;;;;5.60;2.15;;;;;;;18.39;70.99;102509.63;5250707;28;20044;-70
2022/07/10 09:28:23;;;;;;;6.72;2.22;;;;;;;18.65;71.44;102505.72;5242473;28;20541;-70
2022/07/10 09:30:56;;;;;;;8.65;2.38;;;;;;;18.65;70.75;102493.06;5237277;28;20021;-70
2022/07/10 09:33:30;;;;;;;5.72;1.80;;;;;;;18.54;71.29;102496.69;5242944;28;20032;-70
2022/07/10 09:36:05;;;;;;;6.68;1.83;;;;;;;18.46;71.55;102493.75;5249552;28;20486;-71
2022/07/10 09:38:39;;;;;;;7.80;1.77;;;;;;;18.55;72.84;102489.44;5239393;28;20057;-70
2022/07/10 09:41:22;;;;;;;5.25;1.83;;;;;;;18.67;72.18;102503.75;5236005;28;20031;-70
2022/07/10 09:43:59;;;;;;;7.97;2.15;;;;;;;18.78;70.51;102488.31;5243278;28;20139;-70
2022/07/10 09:46:33;;;;;;;4.70;1.80;;;;;;;18.72;70.19;102491.56;5239347;28;20021;-70
2022/07/10 09:49:12;;;;;;;6.05;1.80;;;;;;;18.73;70.83;102493.25;5253425;28;20029;-69
2022/07/10 09:51:45;;;;;;;4.03;1.75;;;;;;;18.65;71.31;102486.81;5251968;28;20029;-70
2022/07/10 09:54:18;;;;;;;6.40;1.98;;;;;;;18.65;70.40;102487.66;5248539;28;20054;-70
2022/07/10 09:56:51;;;;;;;5.82;2.15;;;;;;;18.74;70.94;102486.03;5243161;28;20753;-70
2022/07/10 09:59:22;;;;;;;4.70;2.10;;;;;;;18.97;70.18;102484.94;5251675;28;20060;-70
2022/07/10 10:01:54;;;;;;;4.30;2.00;;;;;;;19.10;69.24;102478.44;5246990;28;20037;-70
2022/07/10 10:04:28;;;;;;;6.45;1.90;;;;;;;19.29;68.01;102486.69;5237284;28;20543;-70
2022/07/10 10:07:01;;;;;;;5.70;2.35;;;;;;;19.19;68.65;102485.75;5245881;28;20070;-70
2022/07/10 10:09:50;;;;;;;5.13;2.25;;;;;;;19.07;69.30;102487.69;5252729;28;20467;-70
2022/07/10 10:12:31;;;;;;;4.95;1.92;;;;;;;19.02;69.27;102479.13;5242098;28;20029;-70
2022/07/10 10:15:02;;;;;;;5.57;2.13;;;;;;;19.40;69.66;102475.75;5249665;28;20063;-69
2022/07/10 10:17:35;;;;;;;5.75;2.38;;;;;;;19.57;67.25;102476.13;5241619;28;20120;-70
2022/07/10 10:23:00;;;;;;;6.85;1.83;;;;;;;20.00;66.11;102483.16;5243857;28;20037;-70
2022/07/10 10:25:33;;;;;;;6.50;2.58;;;;;;;19.85;64.87;102479.09;5246965;28;20029;-69
2022/07/10 10:28:08;;;;;;;4.87;2.23;;;;;;;19.75;68.30;102477.22;5240445;28;20172;-69
2022/07/10 10:30:42;;;;;;;4.53;2.10;;;;;;;19.53;67.51;102480.09;5247489;28;20029;-69
2022/07/10 10:33:32;;;;;;;5.78;1.95;;;;;;;19.85;67.33;102473.66;5241300;28;20033;-70
2022/07/10 10:36:05;;;;;;;6.25;2.10;;;;;;;19.86;66.60;102469.97;5251475;28;20044;-69
2022/07/10 10:38:51;;;;;;;7.43;2.47;;;;;;;20.20;66.43;102475.03;5245557;28;20041;-70
2022/07/10 10:41:26;;;;;;;2.95;1.50;;;;;;;20.12;65.09;102476.59;5241953;28;20036;-70
2022/07/10 10:44:07;;;;;;;3.03;1.45;;;;;;;20.37;64.02;102466.22;5242532;28;20060;-69
2022/07/10 10:46:53;;;;;;;5.80;1.70;;;;;;;20.50;63.95;102469.50;5243238;28;20033;-70
2022/07/10 10:49:25;;;;;;;4.35;1.83;;;;;;;20.42;62.55;102457.63;5249742;28;20056;-69
2022/07/10 10:52:06;;;;;;;6.07;1.70;;;;;;;20.66;63.11;102468.09;5236056;28;20037;-70
2022/07/10 10:55:00;;;;;;;6.35;1.85;;;;;;;20.84;62.59;102465.47;5246972;28;20029;-71
2022/07/10 10:57:31;;;;;;;5.43;1.65;;;;;;;20.99;62.68;102463.16;5241255;28;20067;-70
2022/07/10 11:00:07;;;;;;;3.92;1.35;;;;;;;20.93;62.62;102459.19;5239277;28;20120;-72
2022/07/10 11:02:39;;;;;;;4.00;1.58;;;;;;;21.02;62.80;102457.47;5250027;28;20033;-72
2022/07/10 11:05:23;;;;;;;4.60;1.90;;;;;;;21.23;63.47;102458.09;5239639;28;20091;-71
2022/07/10 11:08:00;;;;;;;5.13;1.33;;;;;;;21.31;61.90;102463.63;5253143;28;20067;-73
2022/07/10 11:10:39;;;;;;;6.03;1.45;;;;;;;21.02;60.40;102452.03;5242112;28;20039;-71
2022/07/10 11:13:12;;;;;;;4.30;1.33;;;;;;;21.03;61.57;102460.00;5243668;28;20039;-71
2022/07/10 11:15:47;;;;;;;3.38;1.38;;;;;;;20.91;61.52;102451.19;5243425;28;20502;-71
2022/07/10 11:18:19;;;;;;;;;;;;;;;21.33;61.56;102452.63;5250099;28;20033;-70
2022/07/10 11:20:53;;;;;;;4.95;1.20;;;;;;;21.10;62.25;102447.56;5246117;28;19916;-70
2022/07/10 11:23:51;;;;;;;3.85;1.48;;;;;;;21.28;62.44;102439.50;5246027;28;20470;-70
2022/07/10 11:26:35;;;;;;;3.72;1.15;;;;;;;21.18;61.38;102441.41;5252042;28;20323;-71
2022/07/10 11:29:07;;;;;;;5.47;1.40;;;;;;;21.43;61.48;102439.00;5254285;28;20029;-70
2022/07/10 11:31:44;;;;;;;4.20;1.30;;;;;;;21.60;62.18;102437.41;5255254;28;20047;-71
2022/07/10 11:34:16;;;;;;;4.35;1.30;;;;;;;21.23;61.07;102438.22;5254737;28;20037;-71
2022/07/10 11:36:48;;;;;;;4.07;1.40;;;;;;;21.32;61.04;102438.22;5255663;28;20031;-71
2022/07/10 11:39:19;;;;;;;4.50;1.33;;;;;;;21.74;62.00;102442.31;5242393;28;20025;-71
2022/07/10 11:41:50;;;;;;;3.97;1.35;;;;;;;21.54;59.31;102436.97;5251740;28;20116;-70
2022/07/10 11:44:21;;;;;;;3.42;1.33;;;;;;;21.63;59.98;102432.53;5256609;28;20025;-71
2022/07/10 11:46:55;;;;;;;3.17;1.20;;;;;;;21.44;59.72;102433.47;5251156;28;20031;-71
2022/07/10 11:49:26;;;;;;;;;;;;;;;21.87;59.17;102428.38;5264019;28;20475;-71
2022/07/10 11:52:03;;;;;;;3.13;1.00;;;;;;;21.23;60.74;102427.38;5249344;28;20003;-71
2022/07/10 11:54:37;;;;;;;4.40;1.20;;;;;;;21.46;61.44;102425.19;5253400;28;20310;-70
2022/07/10 11:57:08;;;;;;;3.72;1.17;;;;;;;21.74;61.71;102420.56;5251288;28;20482;-71
2022/07/10 11:59:40;;;;;;;3.15;1.02;;;;;;;21.62;59.30;102425.38;5250888;28;20037;-70
2022/07/10 12:02:11;;;;;;;4.07;1.10;;;;;;;21.69;58.55;102418.31;5245905;28;20021;-71
2022/07/10 12:04:42;;;;;;;8.85;1.85;;;;;;;21.70;59.42;102414.59;5253535;28;20409;-71